Time;durP1;ratioP1;P1;durP2;ratioP2;P2;SDS_P1;SDS_P2;PMS_P1;PMS_P2;Temp;Humidity;BMP_temperature;BMP_pressure;BME280_temperature;BME280_humidity;BME280_pressure;Samples;Min_cycle;Max_cycle;Signal;HPM_P1;HPM_P2
2023/09/27 00:00:49;;;;;;;3.90;2.33;;;;;;;12.90;90.79;101131.69;5114669;28;20096;-69
2023/09/27 00:03:53;;;;;;;6.45;2.28;;;;;;;12.90;90.63;101124.66;5114536;28;20046;-71
2023/09/27 00:06:56;;;;;;;7.20;2.40;;;;;;;12.85;90.68;101123.19;5114341;28;20042;-71
2023/09/27 00:10:09;;;;;;;7.47;2.50;;;;;;;12.82;90.93;101115.47;5114235;28;20153;-71
2023/09/27 00:13:13;;;;;;;6.25;2.40;;;;;;;12.78;90.86;101128.75;5114157;28;20051;-71
2023/09/27 00:16:19;;;;;;;6.72;2.58;;;;;;;12.81;90.39;101138.25;5114217;28;20046;-69
2023/09/27 00:19:25;;;;;;;5.60;2.40;;;;;;;12.85;90.02;101124.03;5113896;28;20124;-71
2023/09/27 00:22:28;;;;;;;4.97;2.45;;;;;;;12.80;90.26;101129.53;5114404;28;20076;-71
2023/09/27 00:25:32;;;;;;;4.82;2.20;;;;;;;12.86;90.13;101130.13;5114075;28;20046;-71
2023/09/27 00:28:39;;;;;;;4.15;2.40;;;;;;;12.85;90.02;101131.06;5114117;28;20037;-71
2023/09/27 00:31:45;;;;;;;3.88;2.15;;;;;;;12.90;89.76;101122.03;5113265;28;20123;-71
2023/09/27 00:34:49;;;;;;;6.95;2.80;;;;;;;12.93;89.68;101126.28;5113926;28;20051;-71
2023/09/27 00:37:52;;;;;;;6.53;3.13;;;;;;;12.83;90.03;101120.66;5113868;28;20606;-71
2023/09/27 00:41:01;;;;;;;3.60;2.40;;;;;;;12.90;89.69;101121.19;5113976;28;20043;-71
2023/09/27 00:44:06;;;;;;;4.82;2.70;;;;;;;12.90;89.85;101122.03;5113885;28;20120;-71
2023/09/27 00:47:11;;;;;;;5.22;2.53;;;;;;;12.92;89.99;101114.06;5113762;28;20039;-71
2023/09/27 00:50:14;;;;;;;3.65;2.53;;;;;;;12.87;90.10;101110.84;5112782;28;20039;-71
2023/09/27 00:53:18;;;;;;;4.88;2.80;;;;;;;12.93;90.14;101119.25;5113342;28;20069;-71
2023/09/27 00:56:23;;;;;;;5.32;2.40;;;;;;;12.96;90.06;101111.19;5113743;28;20038;-71
2023/09/27 00:59:34;;;;;;;5.30;2.85;;;;;;;12.94;89.97;101110.41;5113615;28;20050;-71
2023/09/27 01:02:41;;;;;;;7.72;3.15;;;;;;;12.93;90.14;101106.13;5113635;28;20046;-71
2023/09/27 01:05:45;;;;;;;6.65;3.00;;;;;;;12.94;90.50;101101.72;5113191;28;20050;-71
2023/09/27 01:08:50;;;;;;;6.45;3.40;;;;;;;12.92;90.73;101087.81;5112725;28;20509;-71
2023/09/27 01:11:56;;;;;;;6.07;3.05;;;;;;;12.93;90.92;101081.66;5113314;28;20130;-72
2023/09/27 01:15:00;;;;;;;5.50;2.92;;;;;;;12.86;90.99;101082.88;5113418;28;20459;-71
2023/09/27 01:18:05;;;;;;;9.02;2.67;;;;;;;12.94;90.48;101080.72;5112634;28;20172;-71
2023/09/27 01:21:10;;;;;;;8.27;3.25;;;;;;;12.87;90.73;101071.47;5113504;28;20069;-71
2023/09/27 01:24:17;;;;;;;12.55;3.95;;;;;;;12.81;91.42;101085.75;5112519;28;20050;-71
2023/09/27 01:27:22;;;;;;;15.07;5.35;;;;;;;12.75;92.31;101091.31;5113090;28;20104;-71
2023/09/27 01:30:32;;;;;;;14.60;4.57;;;;;;;12.74;92.66;101094.88;5112534;28;20042;-71
2023/09/27 01:33:35;;;;;;;11.18;5.00;;;;;;;12.70;94.00;101109.06;5112415;28;20568;-71
2023/09/27 01:36:39;;;;;;;15.15;5.50;;;;;;;12.47;95.85;101107.63;5112722;28;20042;-71
2023/09/27 01:39:42;;;;;;;6.35;4.22;;;;;;;12.58;95.59;101100.09;5113202;28;20560;-71
2023/09/27 01:42:45;;;;;;;7.15;4.20;;;;;;;12.49;95.79;101111.03;5112328;28;20088;-71
2023/09/27 01:45:48;;;;;;;;;;;;;;;12.55;95.25;101113.34;5112713;28;20039;-70
2023/09/27 01:48:54;;;;;;;6.38;3.22;;;;;;;12.56;94.25;101118.50;5113034;28;19919;-71
2023/09/27 01:51:58;;;;;;;4.45;2.80;;;;;;;12.67;93.96;101130.25;5112452;28;20078;-70
2023/09/27 01:55:01;;;;;;;;;;;;;;;12.74;93.41;101136.88;5113538;28;20166;-71
2023/09/27 01:58:05;;;;;;;8.48;2.90;;;;;;;12.75;93.18;101134.16;5113054;28;19976;-71
2023/09/27 02:01:08;;;;;;;5.90;2.63;;;;;;;12.85;92.50;101138.94;5112754;28;20096;-71
2023/09/27 02:04:11;;;;;;;6.05;2.97;;;;;;;12.74;93.20;101153.47;5116034;28;20042;-71
2023/09/27 02:07:18;;;;;;;5.47;2.85;;;;;;;12.84;92.86;101159.09;5116060;28;20101;-71
2023/09/27 02:10:22;;;;;;;7.03;3.30;;;;;;;12.85;92.94;101157.31;5116757;28;20096;-71
2023/09/27 02:13:27;;;;;;;5.85;3.15;;;;;;;12.92;92.72;101156.03;5116100;28;20070;-71
2023/09/27 02:16:34;;;;;;;5.10;3.33;;;;;;;12.97;92.13;101148.78;5116785;28;20043;-71
2023/09/27 02:19:40;;;;;;;8.27;3.15;;;;;;;12.95;91.68;101145.38;5116619;28;20076;-71
2023/09/27 02:22:46;;;;;;;5.18;3.58;;;;;;;12.90;91.81;101155.31;5116093;28;20417;-71
2023/09/27 02:25:58;;;;;;;4.53;2.95;;;;;;;12.92;91.54;101151.66;5115790;28;20062;-71
2023/09/27 02:29:06;;;;;;;7.43;3.53;;;;;;;12.86;91.77;101157.25;5115673;28;20043;-71
2023/09/27 02:32:10;;;;;;;6.20;3.05;;;;;;;12.87;91.98;101158.09;5116414;28;20268;-71
2023/09/27 02:35:18;;;;;;;4.35;2.80;;;;;;;12.86;91.92;101173.00;5115661;28;20100;-71
2023/09/27 02:38:26;;;;;;;7.50;3.60;;;;;;;12.87;92.25;101177.28;5116092;28;20066;-71
2023/09/27 02:41:29;;;;;;;6.25;3.72;;;;;;;12.84;92.67;101180.06;5116243;28;20093;-71
2023/09/27 02:44:32;;;;;;;8.18;3.80;;;;;;;12.88;92.84;101176.34;5116038;28;20411;-71
2023/09/27 02:47:39;;;;;;;8.18;4.05;;;;;;;12.90;92.91;101181.53;5116071;28;20054;-71
2023/09/27 02:50:48;;;;;;;8.23;4.30;;;;;;;12.94;93.27;101181.28;5116085;28;20509;-71
2023/09/27 02:53:51;;;;;;;10.23;4.95;;;;;;;12.85;94.67;101186.16;5116313;28;20046;-71
2023/09/27 02:56:54;;;;;;;;;;;;;;;12.82;95.58;101191.56;5120810;27;20092;-71
2023/09/27 02:59:58;;;;;;;10.20;6.15;;;;;;;12.89;95.56;101199.06;5130899;27;19969;-71
2023/09/27 03:03:07;;;;;;;16.20;7.40;;;;;;;12.72;97.79;101185.94;5115791;28;20047;-71
2023/09/27 03:06:14;;;;;;;14.55;7.13;;;;;;;12.74;98.37;101171.81;5114846;28;20051;-71
2023/09/27 03:09:19;;;;;;;12.02;6.70;;;;;;;12.84;97.83;101142.50;5114949;28;20035;-71
2023/09/27 03:12:22;;;;;;;10.50;7.05;;;;;;;12.90;97.28;101153.53;5114899;28;20505;-72
2023/09/27 03:15:27;;;;;;;15.38;6.75;;;;;;;12.85;97.58;101166.00;5114799;28;20138;-71
2023/09/27 03:18:31;;;;;;;8.25;7.05;;;;;;;12.70;98.63;101165.03;5114669;28;20161;-71
2023/09/27 03:21:35;;;;;;;15.80;7.55;;;;;;;12.70;98.93;101144.06;5114655;28;20042;-71
2023/09/27 03:24:41;;;;;;;6.88;5.97;;;;;;;12.72;98.52;101134.31;5126151;27;20418;-71
2023/09/27 03:27:46;;;;;;;10.63;7.18;;;;;;;12.75;97.41;101134.16;5126440;27;20511;-71
2023/09/27 03:30:49;;;;;;;8.35;6.55;;;;;;;12.85;96.71;101138.94;5114671;28;20055;-71
2023/09/27 03:33:52;;;;;;;8.05;6.88;;;;;;;12.68;96.83;101140.66;5126297;27;20457;-71
2023/09/27 03:36:56;;;;;;;8.00;6.47;;;;;;;12.45;98.85;101146.22;5114394;28;20042;-70
2023/09/27 03:39:59;;;;;;;7.05;5.80;;;;;;;12.33;99.76;101159.00;5114561;28;20449;-71
2023/09/27 03:43:06;;;;;;;7.28;6.30;;;;;;;12.13;100.00;101169.63;5114501;28;20046;-72
2023/09/27 03:46:46;;;;;;;7.97;5.70;;;;;;;12.21;100.00;101170.09;5113534;28;20396;-72
2023/09/27 03:49:50;;;;;;;7.47;5.55;;;;;;;12.08;100.00;101169.00;5111869;28;20074;-71
2023/09/27 03:52:55;;;;;;;;;;;;;;;12.10;100.00;101164.53;5100887;28;20100;-71
2023/09/27 03:56:03;;;;;;;6.00;5.40;;;;;;;12.24;100.00;101169.94;5111895;28;20364;-71
2023/09/27 03:59:07;;;;;;;5.70;5.10;;;;;;;12.47;98.88;101160.09;5111728;28;20045;-72
2023/09/27 04:02:11;;;;;;;7.25;5.38;;;;;;;12.53;97.95;101165.88;5113695;28;20061;-72
2023/09/27 04:05:16;;;;;;;5.63;4.65;;;;;;;12.60;96.96;101171.66;5114577;28;20486;-73
2023/09/27 04:08:19;;;;;;;4.63;3.78;;;;;;;12.68;96.10;101169.50;5113631;28;20043;-73
2023/09/27 04:11:22;;;;;;;6.57;4.90;;;;;;;12.70;95.49;101170.28;5114427;28;20054;-72
2023/09/27 04:14:33;;;;;;;7.68;4.82;;;;;;;12.69;95.53;101173.81;5114408;28;20560;-71
2023/09/27 04:17:40;;;;;;;6.80;6.10;;;;;;;12.67;95.41;101165.19;5114160;28;20034;-73
2023/09/27 04:20:44;;;;;;;5.88;5.22;;;;;;;12.72;95.42;101164.97;5114140;28;20047;-74
2023/09/27 04:24:04;;;;;;;6.55;5.95;;;;;;;12.76;95.26;101164.75;5113318;28;20403;-74
2023/09/27 04:27:08;;;;;;;8.07;7.28;;;;;;;12.80;95.23;101173.28;5113382;28;20047;-74
2023/09/27 04:30:12;;;;;;;;;;;;;;;12.78;95.29;101169.88;5114652;28;20047;-71
2023/09/27 04:33:18;;;;;;;8.57;7.72;;;;;;;12.72;95.17;101164.97;5114003;28;19918;-73
2023/09/27 04:36:24;;;;;;;7.88;7.13;;;;;;;12.68;95.85;101169.50;5113879;28;20089;-72
2023/09/27 04:39:31;;;;;;;7.40;6.60;;;;;;;12.62;96.23;101167.19;5113778;28;20035;-73
2023/09/27 04:42:35;;;;;;;9.38;7.38;;;;;;;12.63;96.15;101166.25;5114165;28;20563;-73
2023/09/27 04:45:38;;;;;;;8.52;7.70;;;;;;;12.62;95.83;101174.22;5113817;28;20046;-74
2023/09/27 04:48:41;;;;;;;;;;;;;;;12.56;96.04;101168.34;5114180;28;20084;-75
2023/09/27 04:51:48;;;;;;;10.68;7.28;;;;;;;12.60;95.58;101171.66;5113939;28;19918;-67
2023/09/27 04:54:58;;;;;;;8.65;7.18;;;;;;;12.60;96.24;101173.44;5113579;28;20145;-76
2023/09/27 04:58:01;;;;;;;7.80;7.00;;;;;;;12.48;96.21;101177.56;5112124;28;20047;-73
2023/09/27 05:01:05;;;;;;;7.95;7.15;;;;;;;12.49;95.99;101184.47;5112323;28;20532;-67
2023/09/27 05:04:12;;;;;;;8.32;7.40;;;;;;;12.48;96.70;101185.41;5113080;28;20127;-72
2023/09/27 05:07:19;;;;;;;10.45;7.05;;;;;;;12.50;96.44;101187.00;5113502;28;20081;-72
2023/09/27 05:10:22;;;;;;;7.90;7.10;;;;;;;12.43;96.96;101190.88;5113451;28;20095;-76
2023/09/27 05:13:26;;;;;;;10.32;8.50;;;;;;;12.39;96.93;101188.50;5113328;28;20047;-75
2023/09/27 05:16:35;;;;;;;8.55;6.63;;;;;;;12.43;96.31;101175.13;5113362;28;20042;-79
2023/09/27 05:19:39;;;;;;;7.70;6.30;;;;;;;12.49;95.87;101180.09;5113244;28;20115;-73
2023/09/27 05:22:42;;;;;;;6.97;6.28;;;;;;;12.48;95.54;101177.56;5116831;28;20091;-72
2023/09/27 05:25:49;;;;;;;7.05;6.35;;;;;;;12.38;95.94;101171.91;5132663;28;20407;-78
2023/09/27 05:28:53;;;;;;;8.90;6.55;;;;;;;12.37;95.39;101164.09;5121702;28;20042;-76
2023/09/27 05:31:56;;;;;;;5.80;5.20;;;;;;;12.31;95.24;101171.34;5109730;28;20120;-80
2023/09/27 05:34:59;;;;;;;7.82;5.03;;;;;;;12.11;95.30;101179.34;5114148;27;20042;-78
2023/09/27 05:38:03;;;;;;;5.20;4.70;;;;;;;12.12;95.53;101178.41;5115357;28;20128;-77
2023/09/27 05:41:06;;;;;;;4.85;4.28;;;;;;;12.15;95.08;101174.78;5115044;28;20097;-75
2023/09/27 05:48:38;;;;;;;6.32;5.72;;;;;;;12.26;95.37;101151.53;5102767;27;20039;-77
2023/09/27 05:51:41;;;;;;;9.25;5.97;;;;;;;12.26;95.65;101151.53;5136074;27;20120;-76
2023/09/27 05:54:46;;;;;;;;;;;;;;;12.19;96.45;101150.13;5136476;27;20071;-74
2023/09/27 05:57:54;;;;;;;10.45;6.65;;;;;;;12.22;96.25;101156.09;5134978;27;19922;-79
2023/09/27 06:01:02;;;;;;;10.52;7.13;;;;;;;12.22;96.79;101166.56;5121538;27;20110;-76
2023/09/27 06:04:05;;;;;;;7.90;7.10;;;;;;;12.21;96.98;101172.72;5132944;27;20111;-77
2023/09/27 06:07:13;;;;;;;10.68;7.32;;;;;;;12.21;97.87;101174.50;5133920;27;20049;-81
2023/09/27 06:10:22;;;;;;;9.20;7.35;;;;;;;12.15;98.50;101173.00;5134650;27;20515;-85
2023/09/27 06:13:28;;;;;;;10.63;6.85;;;;;;;12.27;98.04;101175.03;5135362;27;20050;-83
2023/09/27 06:16:50;;;;;;;7.60;6.90;;;;;;;12.34;97.76;101168.56;5132450;27;20049;-82
2023/09/27 06:20:05;;;;;;;8.00;7.20;;;;;;;12.29;98.63;101167.97;5113706;28;20092;-82
2023/09/27 06:23:09;;;;;;;13.13;6.68;;;;;;;12.46;97.92;101168.91;5112972;28;20042;-82
2023/09/27 06:26:12;;;;;;;7.63;6.90;;;;;;;12.38;98.33;101171.91;5102575;28;20100;-82
2023/09/27 06:29:16;;;;;;;7.13;6.38;;;;;;;12.35;98.44;101166.81;5115318;28;20047;-82
2023/09/27 06:32:22;;;;;;;7.97;6.65;;;;;;;12.37;98.40;101170.19;5115038;28;20136;-82
2023/09/27 06:35:25;;;;;;;7.63;6.88;;;;;;;12.45;97.52;101178.53;5114248;28;20502;-83
2023/09/27 06:38:29;;;;;;;7.57;6.88;;;;;;;12.50;97.61;101162.56;5118971;27;20046;-82
2023/09/27 06:41:34;;;;;;;8.48;6.53;;;;;;;12.51;97.86;101169.53;5120654;27;20089;-82
2023/09/27 06:44:37;;;;;;;8.43;7.63;;;;;;;12.59;96.75;101167.34;5123253;27;20139;-82
2023/09/27 06:47:41;;;;;;;12.80;7.20;;;;;;;12.41;97.01;101152.53;5118419;27;20042;-82
2023/09/27 06:51:07;;;;;;;7.65;6.88;;;;;;;12.41;97.93;101145.53;5118648;27;20046;-83
2023/09/27 06:54:11;;;;;;;11.27;8.00;;;;;;;12.54;97.48;101151.84;5131855;27;20612;-84
2023/09/27 06:57:16;;;;;;;7.95;7.13;;;;;;;12.56;97.65;101151.75;5118165;27;20046;-81
2023/09/27 07:00:24;;;;;;;12.00;7.45;;;;;;;12.52;98.48;101158.09;5120336;27;20047;-69
2023/09/27 07:03:33;;;;;;;8.15;7.35;;;;;;;12.60;97.74;101161.16;5113829;28;20108;-72
2023/09/27 07:06:36;;;;;;;9.30;7.10;;;;;;;12.72;97.06;101173.66;5113837;28;20419;-69
2023/09/27 07:09:40;;;;;;;7.80;7.00;;;;;;;12.55;97.77;101178.94;5113982;28;20037;-69
2023/09/27 07:12:43;;;;;;;8.48;7.57;;;;;;;12.64;98.73;101175.00;5117265;27;20050;-69
2023/09/27 07:15:48;;;;;;;8.77;7.97;;;;;;;12.66;98.35;101187.09;5113786;28;20055;-69
2023/09/27 07:18:50;;;;;;;8.90;7.43;;;;;;;12.54;98.60;101193.00;5113617;28;20078;-70
2023/09/27 07:21:54;;;;;;;8.32;7.53;;;;;;;12.60;99.04;101197.06;5113502;28;20163;-69
2023/09/27 07:24:57;;;;;;;7.95;7.15;;;;;;;12.59;99.37;101190.97;5117477;27;20096;-70
2023/09/27 07:28:05;;;;;;;8.23;7.43;;;;;;;12.75;98.51;101191.88;5124215;27;20042;-70
2023/09/27 07:31:08;;;;;;;8.73;7.65;;;;;;;12.75;97.68;101184.00;5133779;27;20102;-70
2023/09/27 07:34:11;;;;;;;7.93;7.22;;;;;;;12.94;97.00;101191.78;5133987;27;20088;-70
2023/09/27 07:37:15;;;;;;;8.88;8.00;;;;;;;12.93;96.88;101195.34;5134123;27;20088;-70
2023/09/27 07:40:18;;;;;;;7.63;6.82;;;;;;;13.04;96.91;101200.88;5133893;27;20046;-70
2023/09/27 07:43:21;;;;;;;7.80;7.10;;;;;;;13.14;96.37;101208.28;5124267;27;20131;-70
2023/09/27 07:46:25;;;;;;;6.60;5.90;;;;;;;13.27;95.39;101209.38;5113553;28;20407;-70
2023/09/27 07:49:28;;;;;;;8.75;7.82;;;;;;;13.20;94.91;101205.34;5113262;28;20509;-70
2023/09/27 07:52:31;;;;;;;8.45;7.65;;;;;;;13.04;95.91;101197.41;5113075;28;20096;-70
2023/09/27 07:55:50;;;;;;;8.40;7.07;;;;;;;13.19;95.75;101201.03;5132645;27;20053;-70
2023/09/27 07:58:54;;;;;;;8.23;7.43;;;;;;;13.26;94.71;101190.16;5122625;27;20046;-70
2023/09/27 08:01:57;;;;;;;7.28;6.57;;;;;;;13.32;95.29;101188.13;5111838;28;20130;-70
2023/09/27 08:05:09;;;;;;;7.82;7.03;;;;;;;13.34;95.62;101175.78;5112876;28;20203;-70
2023/09/27 08:08:16;;;;;;;8.80;8.00;;;;;;;13.49;94.99;101177.56;5112920;28;20088;-70
2023/09/27 08:11:19;;;;;;;8.13;7.32;;;;;;;13.61;94.40;101179.53;5112547;28;20111;-70
2023/09/27 08:14:23;;;;;;;7.60;6.90;;;;;;;13.70;93.79;101184.28;5130952;27;20486;-70
2023/09/27 08:17:29;;;;;;;8.55;7.75;;;;;;;13.72;93.82;101176.34;5121174;27;20107;-71
2023/09/27 08:20:33;;;;;;;8.65;7.88;;;;;;;13.65;94.57;101173.16;5132765;27;20125;-70
2023/09/27 08:24:02;;;;;;;10.55;7.63;;;;;;;13.49;95.03;101167.06;5122085;27;20043;-70
2023/09/27 08:27:05;;;;;;;8.90;8.00;;;;;;;13.77;94.13;101162.91;5119581;27;22390;-70
2023/09/27 08:30:09;;;;;;;8.15;7.35;;;;;;;13.90;93.64;101153.41;5124019;27;20043;-70
2023/09/27 08:33:13;;;;;;;8.57;7.78;;;;;;;13.77;94.33;101155.03;5126026;27;20520;-70
2023/09/27 08:36:16;;;;;;;7.03;6.32;;;;;;;13.92;94.77;101143.66;5122569;27;20533;-70
2023/09/27 08:39:20;;;;;;;8.68;7.78;;;;;;;14.14;93.16;101151.19;5127758;27;20066;-70
2023/09/27 08:42:25;;;;;;;8.93;8.13;;;;;;;13.93;94.11;101150.63;5115756;27;20069;-70
2023/09/27 08:45:31;;;;;;;9.60;8.10;;;;;;;13.95;95.40;101160.13;5111937;28;20084;-70
2023/09/27 08:48:35;;;;;;;8.70;7.88;;;;;;;14.17;94.51;101158.91;5121207;27;20534;-70
2023/09/27 08:51:41;;;;;;;8.68;7.88;;;;;;;14.25;93.49;101153.19;5132728;27;20521;-70
2023/09/27 08:54:44;;;;;;;10.10;9.10;;;;;;;14.19;93.95;101149.97;5132557;27;20046;-70
2023/09/27 08:57:51;;;;;;;8.95;8.10;;;;;;;14.12;94.72;101161.78;5132001;27;20054;-70
2023/09/27 09:00:55;;;;;;;8.80;8.00;;;;;;;14.27;95.03;101152.19;5132270;27;20045;-70
2023/09/27 09:03:59;;;;;;;9.15;8.25;;;;;;;14.35;94.23;101152.56;5119910;27;20128;-70
2023/09/27 09:07:03;;;;;;;10.13;9.00;;;;;;;14.44;95.49;101148.56;5111867;28;20120;-70
2023/09/27 09:10:10;;;;;;;7.95;7.18;;;;;;;14.55;95.29;101148.81;5111163;28;20046;-71
2023/09/27 09:13:14;;;;;;;9.13;8.23;;;;;;;14.72;94.41;101149.59;5112703;28;20090;-72
2023/09/27 09:16:23;;;;;;;10.40;9.40;;;;;;;14.64;95.02;101157.94;5121752;27;20059;-72
2023/09/27 09:19:26;;;;;;;9.75;8.85;;;;;;;14.89;94.39;101159.97;5115259;28;20109;-72
2023/09/27 09:22:30;;;;;;;9.77;8.68;;;;;;;14.77;94.72;101160.69;5128410;27;20103;-72
2023/09/27 09:25:43;;;;;;;10.52;9.13;;;;;;;14.80;94.55;101158.72;5131978;28;20468;-72
2023/09/27 09:28:55;;;;;;;9.85;8.77;;;;;;;15.02;93.40;101163.53;5116080;28;20046;-72
2023/09/27 09:31:58;;;;;;;19.27;8.60;;;;;;;15.02;93.31;101157.44;5129090;28;20088;-68
2023/09/27 09:35:02;;;;;;;9.70;7.88;;;;;;;15.23;93.97;101155.28;5131336;28;20037;-68
2023/09/27 09:38:05;;;;;;;7.30;6.60;;;;;;;15.41;94.20;101155.91;5126561;28;20522;-68
2023/09/27 09:41:10;;;;;;;7.45;6.72;;;;;;;15.58;92.46;101156.56;5111085;28;20216;-69
2023/09/27 09:44:22;;;;;;;8.38;6.93;;;;;;;15.63;93.02;101158.88;5112418;28;20096;-68
2023/09/27 09:47:28;;;;;;;8.40;6.82;;;;;;;15.79;92.72;101149.13;5109254;28;20041;-62
2023/09/27 09:50:32;;;;;;;7.55;6.70;;;;;;;15.88;92.14;101146.81;5117234;28;20037;-62
2023/09/27 09:53:40;;;;;;;7.53;5.90;;;;;;;16.04;92.47;101136.97;5127476;28;20089;-63
2023/09/27 09:56:46;;;;;;;7.85;6.45;;;;;;;16.24;91.21;101138.28;5126041;28;20057;-63
2023/09/27 09:59:59;;;;;;;7.13;6.40;;;;;;;16.24;90.69;101123.31;5124994;28;20042;-69
2023/09/27 10:03:04;;;;;;;6.20;5.60;;;;;;;16.27;92.70;101130.16;5119968;28;20618;-69
2023/09/27 10:06:10;;;;;;;8.40;5.60;;;;;;;16.38;92.72;101124.19;5125194;28;20045;-70
2023/09/27 10:09:14;;;;;;;7.63;6.05;;;;;;;16.49;93.19;101119.00;5117974;28;20593;-69
2023/09/27 10:12:21;;;;;;;7.43;4.97;;;;;;;16.58;91.92;101118.38;5131347;28;20050;-70
2023/09/27 10:15:25;;;;;;;4.38;3.95;;;;;;;16.71;91.68;101099.91;5121639;28;20403;-70
2023/09/27 10:18:30;;;;;;;5.30;4.25;;;;;;;16.86;91.78;101093.59;5110975;28;20042;-70
2023/09/27 10:21:34;;;;;;;8.00;3.47;;;;;;;17.01;91.07;101093.50;5111171;28;20102;-69
2023/09/27 10:24:41;;;;;;;5.10;3.83;;;;;;;17.02;90.26;101092.53;5114641;28;20407;-70
2023/09/27 10:28:04;;;;;;;8.25;4.05;;;;;;;17.04;89.64;101085.34;5118897;27;20123;-69
2023/09/27 10:31:07;;;;;;;3.72;2.90;;;;;;;17.20;90.47;101080.69;5134557;27;20176;-65
2023/09/27 10:34:29;;;;;;;4.57;3.10;;;;;;;17.36;90.52;101068.06;5135299;27;20187;-82
2023/09/27 10:38:10;;;;;;;5.40;3.78;;;;;;;17.60;90.65;101061.91;5135557;27;20123;-82
2023/09/27 10:41:31;;;;;;;5.25;3.10;;;;;;;17.79;89.08;101056.16;5113606;27;20089;-82
2023/09/27 10:44:41;;;;;;;5.68;3.28;;;;;;;17.80;88.80;101048.09;5135324;27;20041;-83
2023/09/27 10:47:46;;;;;;;4.03;2.75;;;;;;;17.85;88.95;101045.97;5132995;27;20042;-83
2023/09/27 10:51:00;;;;;;;4.03;2.60;;;;;;;17.96;87.63;101031.91;5135541;27;20112;-83
2023/09/27 10:54:08;;;;;;;5.90;2.70;;;;;;;17.97;86.87;101030.13;5133140;27;20103;-82
2023/09/27 10:57:14;;;;;;;5.88;2.80;;;;;;;18.20;86.79;101033.69;5132807;27;20114;-83
2023/09/27 11:00:21;;;;;;;6.72;2.67;;;;;;;18.34;86.00;101015.75;5133607;27;20045;-83
2023/09/27 11:03:24;;;;;;;4.32;2.88;;;;;;;18.61;83.07;101006.66;5134089;27;20455;-69
2023/09/27 11:06:29;;;;;;;4.32;2.72;;;;;;;18.61;82.93;101001.34;5133915;27;20107;-70
2023/09/27 11:09:43;;;;;;;3.67;2.40;;;;;;;18.91;80.68;100992.81;5134231;27;20045;-69
2023/09/27 11:12:46;;;;;;;3.70;2.75;;;;;;;19.06;81.46;100996.06;5134236;27;20541;-69
2023/09/27 11:15:50;;;;;;;3.90;2.60;;;;;;;19.31;79.89;100988.78;5134056;27;20096;-70
2023/09/27 11:18:57;;;;;;;3.30;2.50;;;;;;;19.49;78.65;100966.00;5134771;27;20093;-64
2023/09/27 11:22:00;;;;;;;5.28;2.78;;;;;;;19.53;79.58;100970.13;5134374;27;20092;-65
2023/09/27 11:25:05;;;;;;;5.32;2.33;;;;;;;19.82;79.50;100964.22;5134479;27;20046;-66
2023/09/27 11:28:14;;;;;;;6.85;2.60;;;;;;;19.93;78.36;100958.84;5134285;27;20046;-64
2023/09/27 11:31:25;;;;;;;5.13;2.60;;;;;;;19.97;79.55;100944.31;5132576;27;20103;-68
2023/09/27 11:34:30;;;;;;;5.10;2.83;;;;;;;20.13;76.21;100942.06;5131421;27;20054;-67
2023/09/27 11:37:36;;;;;;;6.68;2.50;;;;;;;20.14;76.53;100935.78;5133341;27;20085;-67
2023/09/27 11:40:53;;;;;;;4.38;1.95;;;;;;;20.14;79.20;100933.13;5133665;27;20374;-67
2023/09/27 11:44:25;;;;;;;3.80;2.60;;;;;;;20.15;77.08;100934.78;5134687;27;20208;-67
2023/09/27 11:47:50;;;;;;;6.50;2.83;;;;;;;20.26;75.37;100925.91;5121868;27;20130;-70
2023/09/27 11:50:54;;;;;;;6.32;2.42;;;;;;;20.52;76.33;100910.38;5134442;27;20409;-69
2023/09/27 11:53:59;;;;;;;5.72;2.78;;;;;;;20.56;75.78;100901.16;5127340;27;20092;-70
2023/09/27 11:57:02;;;;;;;3.60;2.20;;;;;;;20.79;77.70;100898.28;5133680;27;20337;-71
2023/09/27 12:00:15;;;;;;;5.00;2.10;;;;;;;21.04;74.38;100892.44;5133612;27;20567;-70
2023/09/27 12:03:19;;;;;;;4.07;2.20;;;;;;;21.14;73.18;100881.78;5133306;27;20050;-70
2023/09/27 12:06:24;;;;;;;5.45;2.50;;;;;;;21.32;73.44;100879.28;5133840;27;20412;-72
2023/09/27 12:09:27;;;;;;;4.93;2.63;;;;;;;21.47;73.43;100883.19;5133224;27;20114;-72
2023/09/27 12:12:34;;;;;;;3.42;2.28;;;;;;;21.81;71.80;100869.41;5132287;27;20049;-70
2023/09/27 12:15:37;;;;;;;3.63;2.17;;;;;;;21.99;70.59;100867.69;5133237;27;20041;-65
2023/09/27 12:18:40;;;;;;;5.35;2.15;;;;;;;22.12;69.91;100853.19;5132484;27;20183;-73
2023/09/27 12:21:44;;;;;;;3.85;2.00;;;;;;;22.43;68.07;100849.28;5133216;27;20523;-78
2023/09/27 12:24:49;;;;;;;5.85;2.20;;;;;;;22.49;64.07;100848.69;5133182;27;20090;-78
2023/09/27 12:27:52;;;;;;;5.25;2.25;;;;;;;22.74;64.13;100833.75;5133125;27;20042;-79
2023/09/27 12:30:56;;;;;;;4.53;1.98;;;;;;;22.93;61.69;100829.28;5132997;27;20050;-77
2023/09/27 12:33:59;;;;;;;5.85;1.80;;;;;;;23.28;61.66;100825.75;5132998;27;20107;-74
2023/09/27 12:37:02;;;;;;;3.63;2.10;;;;;;;23.31;56.46;100817.44;5132750;27;20074;-73
2023/09/27 12:40:07;;;;;;;3.88;1.90;;;;;;;23.75;57.38;100821.94;5132832;27;20088;-72
2023/09/27 12:43:10;;;;;;;3.10;1.58;;;;;;;24.20;55.77;100808.28;5132671;27;20038;-73
2023/09/27 12:46:14;;;;;;;2.47;1.38;;;;;;;24.55;53.38;100804.56;5132533;27;20050;-72
2023/09/27 12:49:18;;;;;;;4.68;1.70;;;;;;;24.85;52.75;100804.91;5131579;27;20130;-72
2023/09/27 12:52:21;;;;;;;5.10;1.50;;;;;;;25.45;48.89;100803.75;5132755;27;20046;-71
2023/09/27 12:55:25;;;;;;;2.72;1.73;;;;;;;25.61;44.19;100792.16;5114963;27;20090;-71
2023/09/27 12:58:29;;;;;;;3.30;1.95;;;;;;;26.05;43.18;100795.22;5112176;28;20131;-71
2023/09/27 13:01:34;;;;;;;7.60;1.80;;;;;;;25.58;43.02;100793.31;5112637;28;20382;-71
2023/09/27 13:04:38;;;;;;;5.28;1.83;;;;;;;26.50;41.93;100790.97;5116383;27;20178;-70
2023/09/27 13:07:41;;;;;;;3.08;1.40;;;;;;;26.29;41.58;100794.25;5121645;27;20535;-70
2023/09/27 13:10:44;;;;;;;3.08;1.70;;;;;;;27.45;38.73;100781.63;5121345;27;20046;-72
2023/09/27 13:13:49;;;;;;;3.38;1.50;;;;;;;28.76;37.83;100778.06;5124124;27;20088;-71
2023/09/27 13:16:52;;;;;;;3.25;1.92;;;;;;;29.53;34.98;100771.00;5120602;27;20042;-70
2023/09/27 13:19:56;;;;;;;4.05;1.40;;;;;;;30.00;34.66;100775.63;5123712;27;20121;-71
2023/09/27 13:23:02;;;;;;;2.33;1.33;;;;;;;30.06;35.38;100763.22;5121868;27;20042;-71
2023/09/27 13:26:06;;;;;;;2.50;1.20;;;;;;;34.35;31.15;100753.28;5121256;28;20042;-71
2023/09/27 13:29:10;;;;;;;6.28;1.63;;;;;;;36.68;27.79;100750.44;5122211;28;20049;-71
2023/09/27 13:32:15;;;;;;;2.17;1.15;;;;;;;38.44;24.16;100753.28;5121145;28;20057;-72
2023/09/27 13:35:21;;;;;;;4.88;1.67;;;;;;;38.27;22.35;100750.66;5122030;28;20148;-72
2023/09/27 13:38:26;;;;;;;4.63;1.58;;;;;;;39.59;22.66;100743.66;5121289;28;20122;-72
2023/09/27 13:41:31;;;;;;;4.40;1.42;;;;;;;39.12;23.60;100744.50;5119387;28;20114;-72
2023/09/27 13:44:35;;;;;;;4.88;1.45;;;;;;;39.36;23.37;100743.03;5122721;28;20111;-72
2023/09/27 13:47:40;;;;;;;3.03;1.38;;;;;;;36.53;23.95;100736.56;5119315;28;20096;-73
2023/09/27 13:50:43;;;;;;;2.33;1.48;;;;;;;38.17;23.26;100742.38;5120929;28;20046;-72
2023/09/27 13:53:47;;;;;;;4.93;1.60;;;;;;;36.64;23.80;100741.13;5122066;28;20046;-72
2023/09/27 13:56:50;;;;;;;3.13;1.35;;;;;;;33.60;27.65;100735.47;5123962;27;20423;-72
2023/09/27 13:59:54;;;;;;;3.58;1.42;;;;;;;32.91;27.67;100720.31;5127736;27;20161;-72
2023/09/27 14:02:58;;;;;;;3.38;1.83;;;;;;;34.42;27.99;100714.09;5115268;28;20462;-72
2023/09/27 14:06:01;;;;;;;2.70;1.13;;;;;;;35.96;27.55;100707.50;5114214;28;20046;-72
2023/09/27 14:09:04;;;;;;;7.47;1.50;;;;;;;35.26;27.83;100716.69;5115272;28;20033;-72
2023/09/27 14:12:07;;;;;;;3.08;1.30;;;;;;;33.52;29.82;100704.06;5115028;28;21287;-72
2023/09/27 14:15:11;;;;;;;3.80;1.50;;;;;;;33.70;30.32;100713.25;5115033;28;20047;-72
2023/09/27 14:18:14;;;;;;;7.78;1.40;;;;;;;35.35;27.83;100708.97;5117110;27;20062;-72
2023/09/27 14:21:18;;;;;;;3.92;1.58;;;;;;;35.01;28.27;100702.50;5119565;27;20140;-79
2023/09/27 14:24:23;;;;;;;5.82;1.50;;;;;;;35.38;27.42;100695.72;5121945;27;20115;-69
2023/09/27 14:27:26;;;;;;;2.75;1.38;;;;;;;35.62;27.24;100701.94;5122423;27;20506;-67
2023/09/27 14:30:30;;;;;;;6.15;1.40;;;;;;;33.66;29.80;100698.47;5128093;27;20050;-70